sensor_id;sensor_type;location;lat;lon;timestamp;temperature;humidity
33099;DHT22;19465;49.016;11.414;2024-03-02T00:00:14;7.10;99.90
33099;DHT22;19465;49.016;11.414;2024-03-02T00:02:44;7.10;99.90
33099;DHT22;19465;49.016;11.414;2024-03-02T00:05:18;7.10;99.90
33099;DHT22;19465;49.016;11.414;2024-03-02T00:07:59;7.00;99.90
33099;DHT22;19465;49.016;11.414;2024-03-02T00:10:26;7.00;99.90
33099;DHT22;19465;49.016;11.414;2024-03-02T00:12:57;7.10;99.90
33099;DHT22;19465;49.016;11.414;2024-03-02T00:15:47;7.00;99.90
33099;DHT22;19465;49.016;11.414;2024-03-02T00:18:16;7.10;99.90
33099;DHT22;19465;49.016;11.414;2024-03-02T00:20:43;7.10;99.90
33099;DHT22;19465;49.016;11.414;2024-03-02T00:23:10;7.10;99.90
33099;DHT22;19465;49.016;11.414;2024-03-02T00:25:48;7.00;99.90
33099;DHT22;19465;49.016;11.414;2024-03-02T00:28:22;7.00;99.90
33099;DHT22;19465;49.016;11.414;2024-03-02T00:31:10;7.00;99.90
33099;DHT22;19465;49.016;11.414;2024-03-02T00:33:40;6.90;99.90
33099;DHT22;19465;49.016;11.414;2024-03-02T00:36:06;7.00;99.90
33099;DHT22;19465;49.016;11.414;2024-03-02T00:38:33;6.90;99.90
33099;DHT22;19465;49.016;11.414;2024-03-02T00:41:04;6.90;99.90
33099;DHT22;19465;49.016;11.414;2024-03-02T00:46:21;6.90;99.90
33099;DHT22;19465;49.016;11.414;2024-03-02T00:48:57;6.90;99.90
33099;DHT22;19465;49.016;11.414;2024-03-02T00:51:26;6.90;99.90
33099;DHT22;19465;49.016;11.414;2024-03-02T00:53:53;6.80;99.90
33099;DHT22;19465;49.016;11.414;2024-03-02T00:56:21;6.90;99.90
33099;DHT22;19465;49.016;11.414;2024-03-02T00:58:46;6.90;99.90
33099;DHT22;19465;49.016;11.414;2024-03-02T01:01:12;6.90;99.90
33099;DHT22;19465;49.016;11.414;2024-03-02T01:03:37;6.80;99.90
33099;DHT22;19465;49.016;11.414;2024-03-02T01:06:04;6.80;99.90
33099;DHT22;19465;49.016;11.414;2024-03-02T01:08:30;6.80;99.90
33099;DHT22;19465;49.016;11.414;2024-03-02T01:10:55;6.80;99.90
33099;DHT22;19465;49.016;11.414;2024-03-02T01:13:22;6.70;99.90
33099;DHT22;19465;49.016;11.414;2024-03-02T01:15:48;6.80;99.90
33099;DHT22;19465;49.016;11.414;2024-03-02T01:18:14;6.70;99.90
33099;DHT22;19465;49.016;11.414;2024-03-02T01:20:40;6.70;99.90
33099;DHT22;19465;49.016;11.414;2024-03-02T01:23:05;6.70;99.90
33099;DHT22;19465;49.016;11.414;2024-03-02T01:25:31;6.70;99.90
33099;DHT22;19465;49.016;11.414;2024-03-02T01:27:56;6.60;99.90
33099;DHT22;19465;49.016;11.414;2024-03-02T01:30:22;6.60;99.90
33099;DHT22;19465;49.016;11.414;2024-03-02T01:32:47;6.60;99.90
33099;DHT22;19465;49.016;11.414;2024-03-02T01:35:13;6.70;99.90
33099;DHT22;19465;49.016;11.414;2024-03-02T01:37:40;6.70;99.90
33099;DHT22;19465;49.016;11.414;2024-03-02T01:40:06;6.70;99.90
33099;DHT22;19465;49.016;11.414;2024-03-02T01:42:36;6.60;99.90
33099;DHT22;19465;49.016;11.414;2024-03-02T01:45:02;6.60;99.90
33099;DHT22;19465;49.016;11.414;2024-03-02T01:47:29;6.60;99.90
33099;DHT22;19465;49.016;11.414;2024-03-02T01:49:54;6.50;99.90
33099;DHT22;19465;49.016;11.414;2024-03-02T01:52:20;6.50;99.90
33099;DHT22;19465;49.016;11.414;2024-03-02T01:54:45;6.50;99.90
33099;DHT22;19465;49.016;11.414;2024-03-02T01:57:11;6.50;99.90
33099;DHT22;19465;49.016;11.414;2024-03-02T01:59:36;6.50;99.90
33099;DHT22;19465;49.016;11.414;2024-03-02T02:02:02;6.50;99.90
33099;DHT22;19465;49.016;11.414;2024-03-02T02:04:27;6.50;99.90
33099;DHT22;19465;49.016;11.414;2024-03-02T02:06:54;6.50;99.90
33099;DHT22;19465;49.016;11.414;2024-03-02T02:09:19;6.50;99.90
33099;DHT22;19465;49.016;11.414;2024-03-02T02:11:45;6.50;99.90
33099;DHT22;19465;49.016;11.414;2024-03-02T02:14:11;6.50;99.90
33099;DHT22;19465;49.016;11.414;2024-03-02T02:16:36;6.50;99.90
33099;DHT22;19465;49.016;11.414;2024-03-02T02:19:02;6.50;99.90
33099;DHT22;19465;49.016;11.414;2024-03-02T02:21:28;6.50;99.90
33099;DHT22;19465;49.016;11.414;2024-03-02T02:23:54;6.50;99.90
33099;DHT22;19465;49.016;11.414;2024-03-02T02:26:19;6.50;99.90
33099;DHT22;19465;49.016;11.414;2024-03-02T02:28:45;6.50;99.90
33099;DHT22;19465;49.016;11.414;2024-03-02T02:31:14;6.50;99.90
33099;DHT22;19465;49.016;11.414;2024-03-02T02:33:40;6.50;99.90
33099;DHT22;19465;49.016;11.414;2024-03-02T02:36:06;6.50;99.90
33099;DHT22;19465;49.016;11.414;2024-03-02T02:38:33;6.50;99.90
33099;DHT22;19465;49.016;11.414;2024-03-02T02:41:00;6.50;99.90
33099;DHT22;19465;49.016;11.414;2024-03-02T02:43:26;6.60;99.90
33099;DHT22;19465;49.016;11.414;2024-03-02T02:45:51;6.50;99.90
33099;DHT22;19465;49.016;11.414;2024-03-02T02:48:17;6.50;99.90
33099;DHT22;19465;49.016;11.414;2024-03-02T02:50:42;6.50;99.90
33099;DHT22;19465;49.016;11.414;2024-03-02T02:53:08;6.50;99.90
33099;DHT22;19465;49.016;11.414;2024-03-02T02:55:35;6.50;99.90
33099;DHT22;19465;49.016;11.414;2024-03-02T02:58:09;6.60;99.90
33099;DHT22;19465;49.016;11.414;2024-03-02T03:00:34;6.60;99.90
33099;DHT22;19465;49.016;11.414;2024-03-02T03:03:01;6.60;99.90
33099;DHT22;19465;49.016;11.414;2024-03-02T03:05:27;6.60;99.90
33099;DHT22;19465;49.016;11.414;2024-03-02T03:07:53;6.60;99.90
33099;DHT22;19465;49.016;11.414;2024-03-02T03:10:19;6.50;99.90
33099;DHT22;19465;49.016;11.414;2024-03-02T03:12:47;6.60;99.90
33099;DHT22;19465;49.016;11.414;2024-03-02T03:15:15;6.60;99.90
33099;DHT22;19465;49.016;11.414;2024-03-02T03:17:44;6.60;99.90
33099;DHT22;19465;49.016;11.414;2024-03-02T03:20:11;6.60;99.90
33099;DHT22;19465;49.016;11.414;2024-03-02T03:22:37;6.60;99.90
33099;DHT22;19465;49.016;11.414;2024-03-02T03:25:03;6.50;99.90
33099;DHT22;19465;49.016;11.414;2024-03-02T03:27:29;6.50;99.90
33099;DHT22;19465;49.016;11.414;2024-03-02T03:29:54;6.50;99.90
33099;DHT22;19465;49.016;11.414;2024-03-02T03:32:20;6.50;99.90
33099;DHT22;19465;49.016;11.414;2024-03-02T03:34:45;6.50;99.90
33099;DHT22;19465;49.016;11.414;2024-03-02T03:37:13;6.50;99.90
33099;DHT22;19465;49.016;11.414;2024-03-02T03:39:38;6.50;99.90
33099;DHT22;19465;49.016;11.414;2024-03-02T03:42:04;6.50;99.90
33099;DHT22;19465;49.016;11.414;2024-03-02T03:44:30;6.50;99.90
33099;DHT22;19465;49.016;11.414;2024-03-02T03:46:55;6.50;99.90
33099;DHT22;19465;49.016;11.414;2024-03-02T03:49:21;6.50;99.90
33099;DHT22;19465;49.016;11.414;2024-03-02T03:51:46;6.50;99.90
33099;DHT22;19465;49.016;11.414;2024-03-02T03:54:12;6.50;99.90
33099;DHT22;19465;49.016;11.414;2024-03-02T03:56:38;6.50;99.90
33099;DHT22;19465;49.016;11.414;2024-03-02T03:59:03;6.60;99.90
33099;DHT22;19465;49.016;11.414;2024-03-02T04:01:30;6.50;99.90
33099;DHT22;19465;49.016;11.414;2024-03-02T04:03:57;6.60;99.90
33099;DHT22;19465;49.016;11.414;2024-03-02T04:06:22;6.60;99.90
33099;DHT22;19465;49.016;11.414;2024-03-02T04:08:48;6.60;99.90
33099;DHT22;19465;49.016;11.414;2024-03-02T04:11:13;6.60;99.90
33099;DHT22;19465;49.016;11.414;2024-03-02T04:13:39;6.60;99.90
33099;DHT22;19465;49.016;11.414;2024-03-02T04:16:05;6.60;99.90
33099;DHT22;19465;49.016;11.414;2024-03-02T04:18:31;6.60;99.90
33099;DHT22;19465;49.016;11.414;2024-03-02T04:20:57;6.60;99.90
33099;DHT22;19465;49.016;11.414;2024-03-02T04:23:27;6.60;99.90
33099;DHT22;19465;49.016;11.414;2024-03-02T04:25:52;6.50;99.90
33099;DHT22;19465;49.016;11.414;2024-03-02T04:28:18;6.50;99.90
33099;DHT22;19465;49.016;11.414;2024-03-02T04:30:44;6.50;99.90
33099;DHT22;19465;49.016;11.414;2024-03-02T04:33:09;6.50;99.90
33099;DHT22;19465;49.016;11.414;2024-03-02T04:35:38;6.50;99.90
33099;DHT22;19465;49.016;11.414;2024-03-02T04:38:04;6.50;99.90
33099;DHT22;19465;49.016;11.414;2024-03-02T04:40:29;6.50;99.90
33099;DHT22;19465;49.016;11.414;2024-03-02T04:42:55;6.60;99.90
33099;DHT22;19465;49.016;11.414;2024-03-02T04:45:21;6.60;99.90
33099;DHT22;19465;49.016;11.414;2024-03-02T04:47:46;6.50;99.90
33099;DHT22;19465;49.016;11.414;2024-03-02T04:50:12;6.60;99.90
33099;DHT22;19465;49.016;11.414;2024-03-02T04:52:37;6.50;99.90
33099;DHT22;19465;49.016;11.414;2024-03-02T04:55:03;6.50;99.90
33099;DHT22;19465;49.016;11.414;2024-03-02T04:57:35;6.50;99.90
33099;DHT22;19465;49.016;11.414;2024-03-02T05:00:01;6.50;99.90
33099;DHT22;19465;49.016;11.414;2024-03-02T05:02:26;6.50;99.90
33099;DHT22;19465;49.016;11.414;2024-03-02T05:04:52;6.50;99.90
33099;DHT22;19465;49.016;11.414;2024-03-02T05:07:17;6.50;99.90
33099;DHT22;19465;49.016;11.414;2024-03-02T05:09:43;6.40;99.90
33099;DHT22;19465;49.016;11.414;2024-03-02T05:12:09;6.40;99.90
33099;DHT22;19465;49.016;11.414;2024-03-02T05:14:55;6.50;99.90
33099;DHT22;19465;49.016;11.414;2024-03-02T05:17:20;6.40;99.90
33099;DHT22;19465;49.016;11.414;2024-03-02T05:19:46;6.50;99.90
33099;DHT22;19465;49.016;11.414;2024-03-02T05:22:11;6.40;99.90
33099;DHT22;19465;49.016;11.414;2024-03-02T05:24:37;6.40;99.90
33099;DHT22;19465;49.016;11.414;2024-03-02T05:27:02;6.40;99.90
33099;DHT22;19465;49.016;11.414;2024-03-02T05:29:28;6.40;99.90
33099;DHT22;19465;49.016;11.414;2024-03-02T05:31:53;6.30;99.90
33099;DHT22;19465;49.016;11.414;2024-03-02T05:34:19;6.30;99.90
33099;DHT22;19465;49.016;11.414;2024-03-02T05:36:44;6.30;99.90
33099;DHT22;19465;49.016;11.414;2024-03-02T05:39:10;6.30;99.90
33099;DHT22;19465;49.016;11.414;2024-03-02T05:41:36;6.30;99.90
33099;DHT22;19465;49.016;11.414;2024-03-02T05:44:01;6.30;99.90
33099;DHT22;19465;49.016;11.414;2024-03-02T05:46:27;6.30;99.90
33099;DHT22;19465;49.016;11.414;2024-03-02T05:48:53;6.30;99.90
33099;DHT22;19465;49.016;11.414;2024-03-02T05:51:18;6.20;99.90
33099;DHT22;19465;49.016;11.414;2024-03-02T05:53:44;6.20;99.90
33099;DHT22;19465;49.016;11.414;2024-03-02T05:56:10;6.30;99.90
33099;DHT22;19465;49.016;11.414;2024-03-02T05:58:35;6.30;99.90
33099;DHT22;19465;49.016;11.414;2024-03-02T06:01:19;6.30;99.90
33099;DHT22;19465;49.016;11.414;2024-03-02T06:03:45;6.30;99.90
33099;DHT22;19465;49.016;11.414;2024-03-02T06:06:11;6.30;99.90
33099;DHT22;19465;49.016;11.414;2024-03-02T06:08:37;6.30;99.90
33099;DHT22;19465;49.016;11.414;2024-03-02T06:11:03;6.40;99.90
33099;DHT22;19465;49.016;11.414;2024-03-02T06:13:29;6.40;99.90
33099;DHT22;19465;49.016;11.414;2024-03-02T06:15:54;6.40;99.90
33099;DHT22;19465;49.016;11.414;2024-03-02T06:18:20;6.50;99.90
33099;DHT22;19465;49.016;11.414;2024-03-02T06:20:45;6.50;99.90
33099;DHT22;19465;49.016;11.414;2024-03-02T06:23:11;6.50;99.90
33099;DHT22;19465;49.016;11.414;2024-03-02T06:25:36;6.60;99.90
33099;DHT22;19465;49.016;11.414;2024-03-02T06:28:02;6.50;99.90
33099;DHT22;19465;49.016;11.414;2024-03-02T06:30:29;6.60;99.90
33099;DHT22;19465;49.016;11.414;2024-03-02T06:32:55;6.60;99.90
33099;DHT22;19465;49.016;11.414;2024-03-02T06:35:20;6.60;99.90
33099;DHT22;19465;49.016;11.414;2024-03-02T06:37:46;6.60;99.90
33099;DHT22;19465;49.016;11.414;2024-03-02T06:40:12;6.60;99.90
33099;DHT22;19465;49.016;11.414;2024-03-02T06:42:37;6.70;99.90
33099;DHT22;19465;49.016;11.414;2024-03-02T06:45:03;6.80;99.90
33099;DHT22;19465;49.016;11.414;2024-03-02T06:47:29;6.90;99.90
33099;DHT22;19465;49.016;11.414;2024-03-02T06:49:55;7.00;99.90
33099;DHT22;19465;49.016;11.414;2024-03-02T06:52:22;7.10;99.90
33099;DHT22;19465;49.016;11.414;2024-03-02T06:54:48;7.10;99.90
33099;DHT22;19465;49.016;11.414;2024-03-02T06:57:14;7.20;99.90
33099;DHT22;19465;49.016;11.414;2024-03-02T06:59:41;7.20;99.90
33099;DHT22;19465;49.016;11.414;2024-03-02T07:02:07;7.40;99.90
33099;DHT22;19465;49.016;11.414;2024-03-02T07:04:34;7.50;99.90
33099;DHT22;19465;49.016;11.414;2024-03-02T07:07:00;7.50;99.90
33099;DHT22;19465;49.016;11.414;2024-03-02T07:09:25;7.50;99.90
33099;DHT22;19465;49.016;11.414;2024-03-02T07:11:51;7.50;99.90
33099;DHT22;19465;49.016;11.414;2024-03-02T07:14:17;7.70;99.90
33099;DHT22;19465;49.016;11.414;2024-03-02T07:16:43;7.60;99.90
33099;DHT22;19465;49.016;11.414;2024-03-02T07:19:09;7.60;99.90
33099;DHT22;19465;49.016;11.414;2024-03-02T07:21:35;7.50;99.90
33099;DHT22;19465;49.016;11.414;2024-03-02T07:24:00;7.60;99.90
33099;DHT22;19465;49.016;11.414;2024-03-02T07:26:30;7.60;99.90
33099;DHT22;19465;49.016;11.414;2024-03-02T07:28:57;7.70;99.90
33099;DHT22;19465;49.016;11.414;2024-03-02T07:31:23;7.80;99.90
33099;DHT22;19465;49.016;11.414;2024-03-02T07:33:48;8.10;99.90
33099;DHT22;19465;49.016;11.414;2024-03-02T07:36:14;8.50;99.90
33099;DHT22;19465;49.016;11.414;2024-03-02T07:38:40;8.60;99.90
33099;DHT22;19465;49.016;11.414;2024-03-02T07:41:06;8.70;99.90
33099;DHT22;19465;49.016;11.414;2024-03-02T07:43:32;8.70;99.90
33099;DHT22;19465;49.016;11.414;2024-03-02T07:45:58;8.80;99.90
33099;DHT22;19465;49.016;11.414;2024-03-02T07:48:25;9.10;99.90
33099;DHT22;19465;49.016;11.414;2024-03-02T07:50:50;9.20;99.90
33099;DHT22;19465;49.016;11.414;2024-03-02T07:53:16;9.20;99.90
33099;DHT22;19465;49.016;11.414;2024-03-02T07:55:42;10.40;99.90
33099;DHT22;19465;49.016;11.414;2024-03-02T07:58:07;10.90;99.90
33099;DHT22;19465;49.016;11.414;2024-03-02T08:00:33;11.10;99.90
33099;DHT22;19465;49.016;11.414;2024-03-02T08:02:59;13.30;99.90
33099;DHT22;19465;49.016;11.414;2024-03-02T08:05:25;15.40;95.90
33099;DHT22;19465;49.016;11.414;2024-03-02T08:07:52;15.00;95.30
33099;DHT22;19465;49.016;11.414;2024-03-02T08:10:18;15.10;95.20
33099;DHT22;19465;49.016;11.414;2024-03-02T08:12:44;14.10;95.70
33099;DHT22;19465;49.016;11.414;2024-03-02T08:15:10;13.20;97.20
33099;DHT22;19465;49.016;11.414;2024-03-02T08:17:35;13.30;97.30
33099;DHT22;19465;49.016;11.414;2024-03-02T08:20:01;13.10;97.80
33099;DHT22;19465;49.016;11.414;2024-03-02T08:22:27;12.50;98.70
33099;DHT22;19465;49.016;11.414;2024-03-02T08:24:53;11.80;99.90
33099;DHT22;19465;49.016;11.414;2024-03-02T08:27:19;11.30;99.90
33099;DHT22;19465;49.016;11.414;2024-03-02T08:29:45;10.90;99.90
33099;DHT22;19465;49.016;11.414;2024-03-02T08:32:11;10.60;99.90
33099;DHT22;19465;49.016;11.414;2024-03-02T08:34:36;10.50;99.90
33099;DHT22;19465;49.016;11.414;2024-03-02T08:37:02;11.20;99.90
33099;DHT22;19465;49.016;11.414;2024-03-02T08:39:28;11.60;99.90
33099;DHT22;19465;49.016;11.414;2024-03-02T08:41:54;11.10;99.90
33099;DHT22;19465;49.016;11.414;2024-03-02T08:44:20;10.70;99.90
33099;DHT22;19465;49.016;11.414;2024-03-02T08:46:45;10.30;99.90
33099;DHT22;19465;49.016;11.414;2024-03-02T08:49:12;10.00;99.90
33099;DHT22;19465;49.016;11.414;2024-03-02T08:51:37;9.90;99.90
33099;DHT22;19465;49.016;11.414;2024-03-02T08:54:03;9.90;99.90
33099;DHT22;19465;49.016;11.414;2024-03-02T08:56:30;10.10;99.90
33099;DHT22;19465;49.016;11.414;2024-03-02T08:58:56;10.00;99.90
33099;DHT22;19465;49.016;11.414;2024-03-02T09:01:21;9.70;99.90
33099;DHT22;19465;49.016;11.414;2024-03-02T09:03:47;9.60;99.90
33099;DHT22;19465;49.016;11.414;2024-03-02T09:06:14;9.70;99.90
33099;DHT22;19465;49.016;11.414;2024-03-02T09:08:42;9.60;99.90
33099;DHT22;19465;49.016;11.414;2024-03-02T09:11:08;9.80;99.90
33099;DHT22;19465;49.016;11.414;2024-03-02T09:13:34;9.40;99.90
33099;DHT22;19465;49.016;11.414;2024-03-02T09:16:00;9.40;99.90
33099;DHT22;19465;49.016;11.414;2024-03-02T09:18:26;9.30;99.90
33099;DHT22;19465;49.016;11.414;2024-03-02T09:20:51;9.10;99.90
33099;DHT22;19465;49.016;11.414;2024-03-02T09:23:17;9.00;99.90
33099;DHT22;19465;49.016;11.414;2024-03-02T09:25:42;8.80;99.90
33099;DHT22;19465;49.016;11.414;2024-03-02T09:28:08;9.00;99.90
33099;DHT22;19465;49.016;11.414;2024-03-02T09:30:33;9.50;99.90
33099;DHT22;19465;49.016;11.414;2024-03-02T09:32:59;10.90;99.90
33099;DHT22;19465;49.016;11.414;2024-03-02T09:35:25;11.00;99.90
33099;DHT22;19465;49.016;11.414;2024-03-02T09:37:50;11.40;99.90
33099;DHT22;19465;49.016;11.414;2024-03-02T09:40:16;12.10;99.90
33099;DHT22;19465;49.016;11.414;2024-03-02T09:42:42;12.20;99.90
33099;DHT22;19465;49.016;11.414;2024-03-02T09:45:09;11.90;99.90
33099;DHT22;19465;49.016;11.414;2024-03-02T09:47:35;13.10;99.90
33099;DHT22;19465;49.016;11.414;2024-03-02T09:50:01;12.40;99.90
33099;DHT22;19465;49.016;11.414;2024-03-02T09:52:27;11.40;99.90
33099;DHT22;19465;49.016;11.414;2024-03-02T09:54:52;10.40;99.90
33099;DHT22;19465;49.016;11.414;2024-03-02T09:57:18;9.80;99.90
33099;DHT22;19465;49.016;11.414;2024-03-02T09:59:44;9.40;99.90
33099;DHT22;19465;49.016;11.414;2024-03-02T10:02:10;9.30;99.90
33099;DHT22;19465;49.016;11.414;2024-03-02T10:04:36;9.40;99.90
33099;DHT22;19465;49.016;11.414;2024-03-02T10:07:16;9.60;99.90
33099;DHT22;19465;49.016;11.414;2024-03-02T10:09:43;9.80;99.90
33099;DHT22;19465;49.016;11.414;2024-03-02T10:12:09;9.90;99.90
33099;DHT22;19465;49.016;11.414;2024-03-02T10:14:36;9.90;99.90
33099;DHT22;19465;49.016;11.414;2024-03-02T10:17:03;9.70;99.90
33099;DHT22;19465;49.016;11.414;2024-03-02T10:19:30;9.60;99.90
33099;DHT22;19465;49.016;11.414;2024-03-02T10:22:04;9.60;99.90
33099;DHT22;19465;49.016;11.414;2024-03-02T10:24:44;10.00;99.90
33099;DHT22;19465;49.016;11.414;2024-03-02T10:27:14;10.20;99.90
33099;DHT22;19465;49.016;11.414;2024-03-02T10:29:40;9.60;99.90
33099;DHT22;19465;49.016;11.414;2024-03-02T10:32:09;9.30;99.90
33099;DHT22;19465;49.016;11.414;2024-03-02T10:34:36;8.80;99.90
33099;DHT22;19465;49.016;11.414;2024-03-02T10:37:02;8.60;99.90
33099;DHT22;19465;49.016;11.414;2024-03-02T10:39:28;8.80;99.90
33099;DHT22;19465;49.016;11.414;2024-03-02T10:41:55;8.90;99.90
33099;DHT22;19465;49.016;11.414;2024-03-02T10:44:22;8.70;99.90
33099;DHT22;19465;49.016;11.414;2024-03-02T10:46:49;8.70;99.90
33099;DHT22;19465;49.016;11.414;2024-03-02T10:49:16;8.60;99.90
33099;DHT22;19465;49.016;11.414;2024-03-02T10:51:43;8.70;99.90
33099;DHT22;19465;49.016;11.414;2024-03-02T10:54:08;8.60;99.90
33099;DHT22;19465;49.016;11.414;2024-03-02T10:56:41;8.70;99.90
33099;DHT22;19465;49.016;11.414;2024-03-02T10:59:22;8.70;99.90
33099;DHT22;19465;49.016;11.414;2024-03-02T11:01:50;8.50;99.90
33099;DHT22;19465;49.016;11.414;2024-03-02T11:04:18;8.40;99.90
33099;DHT22;19465;49.016;11.414;2024-03-02T11:06:48;8.40;99.90
33099;DHT22;19465;49.016;11.414;2024-03-02T11:09:14;8.40;99.90
33099;DHT22;19465;49.016;11.414;2024-03-02T11:11:43;8.40;99.90
33099;DHT22;19465;49.016;11.414;2024-03-02T11:14:13;8.40;99.90
33099;DHT22;19465;49.016;11.414;2024-03-02T11:16:40;8.40;99.90
33099;DHT22;19465;49.016;11.414;2024-03-02T11:19:10;8.40;99.90
33099;DHT22;19465;49.016;11.414;2024-03-02T11:21:36;8.40;99.90
33099;DHT22;19465;49.016;11.414;2024-03-02T11:26:47;8.40;99.90
33099;DHT22;19465;49.016;11.414;2024-03-02T11:32:16;8.60;99.90
33099;DHT22;19465;49.016;11.414;2024-03-02T11:34:44;8.90;99.90
33099;DHT22;19465;49.016;11.414;2024-03-02T11:37:12;8.90;99.90
33099;DHT22;19465;49.016;11.414;2024-03-02T11:39:39;9.00;99.90
33099;DHT22;19465;49.016;11.414;2024-03-02T11:42:08;8.80;99.90
33099;DHT22;19465;49.016;11.414;2024-03-02T11:44:38;8.70;99.90
33099;DHT22;19465;49.016;11.414;2024-03-02T11:47:08;8.70;99.90
33099;DHT22;19465;49.016;11.414;2024-03-02T11:49:56;8.80;99.90
33099;DHT22;19465;49.016;11.414;2024-03-02T11:52:22;8.90;99.90
33099;DHT22;19465;49.016;11.414;2024-03-02T11:54:49;9.30;99.90
33099;DHT22;19465;49.016;11.414;2024-03-02T11:57:18;9.20;99.90
33099;DHT22;19465;49.016;11.414;2024-03-02T11:59:44;9.30;99.90
33099;DHT22;19465;49.016;11.414;2024-03-02T12:02:16;9.50;99.90
33099;DHT22;19465;49.016;11.414;2024-03-02T12:04:42;9.50;99.90
33099;DHT22;19465;49.016;11.414;2024-03-02T12:07:09;9.50;99.90
33099;DHT22;19465;49.016;11.414;2024-03-02T12:09:35;9.50;99.90
33099;DHT22;19465;49.016;11.414;2024-03-02T12:12:09;9.60;99.90
33099;DHT22;19465;49.016;11.414;2024-03-02T12:14:37;9.40;99.90
33099;DHT22;19465;49.016;11.414;2024-03-02T12:17:03;9.50;99.90
33099;DHT22;19465;49.016;11.414;2024-03-02T12:19:30;9.70;99.90
33099;DHT22;19465;49.016;11.414;2024-03-02T12:21:56;9.70;99.90
33099;DHT22;19465;49.016;11.414;2024-03-02T12:24:23;10.10;99.90
33099;DHT22;19465;49.016;11.414;2024-03-02T12:26:50;10.40;99.90
33099;DHT22;19465;49.016;11.414;2024-03-02T12:29:16;11.40;99.90
33099;DHT22;19465;49.016;11.414;2024-03-02T12:31:43;12.30;99.90
33099;DHT22;19465;49.016;11.414;2024-03-02T12:34:13;11.80;99.90
33099;DHT22;19465;49.016;11.414;2024-03-02T12:36:41;12.10;99.90
33099;DHT22;19465;49.016;11.414;2024-03-02T12:39:10;12.60;99.90
33099;DHT22;19465;49.016;11.414;2024-03-02T12:41:36;14.30;98.10
33099;DHT22;19465;49.016;11.414;2024-03-02T12:44:03;14.80;95.40
33099;DHT22;19465;49.016;11.414;2024-03-02T12:46:29;15.30;94.80
33099;DHT22;19465;49.016;11.414;2024-03-02T12:48:54;17.20;92.90
33099;DHT22;19465;49.016;11.414;2024-03-02T12:51:20;19.30;88.40
33099;DHT22;19465;49.016;11.414;2024-03-02T12:53:53;20.30;81.70
33099;DHT22;19465;49.016;11.414;2024-03-02T12:56:19;21.50;75.30
33099;DHT22;19465;49.016;11.414;2024-03-02T12:58:44;20.70;72.40
33099;DHT22;19465;49.016;11.414;2024-03-02T13:01:10;19.00;76.70
33099;DHT22;19465;49.016;11.414;2024-03-02T13:03:39;17.50;80.10
33099;DHT22;19465;49.016;11.414;2024-03-02T13:06:06;16.80;85.60
33099;DHT22;19465;49.016;11.414;2024-03-02T13:08:32;15.50;86.60
33099;DHT22;19465;49.016;11.414;2024-03-02T13:10:58;15.10;88.80
33099;DHT22;19465;49.016;11.414;2024-03-02T13:13:23;16.50;88.80
33099;DHT22;19465;49.016;11.414;2024-03-02T13:15:49;19.80;81.40
33099;DHT22;19465;49.016;11.414;2024-03-02T13:18:17;21.00;75.10
33099;DHT22;19465;49.016;11.414;2024-03-02T13:20:42;23.30;71.30
33099;DHT22;19465;49.016;11.414;2024-03-02T13:23:08;23.60;67.40
33099;DHT22;19465;49.016;11.414;2024-03-02T13:25:33;21.80;68.30
33099;DHT22;19465;49.016;11.414;2024-03-02T13:27:59;20.40;70.40
33099;DHT22;19465;49.016;11.414;2024-03-02T13:30:25;18.30;75.20
33099;DHT22;19465;49.016;11.414;2024-03-02T13:32:51;16.30;79.20
33099;DHT22;19465;49.016;11.414;2024-03-02T13:35:18;14.80;84.40
33099;DHT22;19465;49.016;11.414;2024-03-02T13:37:43;13.90;89.20
33099;DHT22;19465;49.016;11.414;2024-03-02T13:40:09;13.30;90.80
33099;DHT22;19465;49.016;11.414;2024-03-02T13:42:39;12.80;91.80
33099;DHT22;19465;49.016;11.414;2024-03-02T13:45:05;12.80;92.60
33099;DHT22;19465;49.016;11.414;2024-03-02T13:47:31;12.50;93.00
33099;DHT22;19465;49.016;11.414;2024-03-02T13:49:57;13.40;92.90
33099;DHT22;19465;49.016;11.414;2024-03-02T13:52:23;14.30;90.80
33099;DHT22;19465;49.016;11.414;2024-03-02T13:54:51;15.20;90.90
33099;DHT22;19465;49.016;11.414;2024-03-02T13:57:17;15.70;88.60
33099;DHT22;19465;49.016;11.414;2024-03-02T13:59:45;16.90;86.80
33099;DHT22;19465;49.016;11.414;2024-03-02T14:02:11;17.00;84.20
33099;DHT22;19465;49.016;11.414;2024-03-02T14:04:37;17.10;83.90
33099;DHT22;19465;49.016;11.414;2024-03-02T14:07:03;17.00;83.50
33099;DHT22;19465;49.016;11.414;2024-03-02T14:09:29;17.50;84.70
33099;DHT22;19465;49.016;11.414;2024-03-02T14:11:55;18.60;81.50
33099;DHT22;19465;49.016;11.414;2024-03-02T14:14:21;19.40;78.00
33099;DHT22;19465;49.016;11.414;2024-03-02T14:16:47;20.00;76.10
33099;DHT22;19465;49.016;11.414;2024-03-02T14:19:12;19.80;75.60
33099;DHT22;19465;49.016;11.414;2024-03-02T14:21:39;19.20;77.10
33099;DHT22;19465;49.016;11.414;2024-03-02T14:24:04;18.10;78.90
33099;DHT22;19465;49.016;11.414;2024-03-02T14:26:30;17.10;80.50
33099;DHT22;19465;49.016;11.414;2024-03-02T14:28:56;15.90;83.70
33099;DHT22;19465;49.016;11.414;2024-03-02T14:31:21;15.10;86.80
33099;DHT22;19465;49.016;11.414;2024-03-02T14:33:47;14.30;89.40
33099;DHT22;19465;49.016;11.414;2024-03-02T14:36:12;13.80;90.70
33099;DHT22;19465;49.016;11.414;2024-03-02T14:38:39;13.20;91.90
33099;DHT22;19465;49.016;11.414;2024-03-02T14:41:04;13.00;92.90
33099;DHT22;19465;49.016;11.414;2024-03-02T14:43:30;12.80;93.20
33099;DHT22;19465;49.016;11.414;2024-03-02T14:45:56;12.50;93.80
33099;DHT22;19465;49.016;11.414;2024-03-02T14:48:22;12.20;94.70
33099;DHT22;19465;49.016;11.414;2024-03-02T14:50:48;12.20;95.40
33099;DHT22;19465;49.016;11.414;2024-03-02T14:53:14;12.10;95.90
33099;DHT22;19465;49.016;11.414;2024-03-02T14:55:39;12.10;96.40
33099;DHT22;19465;49.016;11.414;2024-03-02T14:58:05;12.00;96.70
33099;DHT22;19465;49.016;11.414;2024-03-02T15:00:30;11.90;97.10
33099;DHT22;19465;49.016;11.414;2024-03-02T15:02:56;11.80;97.50
33099;DHT22;19465;49.016;11.414;2024-03-02T15:05:22;11.70;98.20
33099;DHT22;19465;49.016;11.414;2024-03-02T15:07:47;11.80;98.40
33099;DHT22;19465;49.016;11.414;2024-03-02T15:10:13;12.10;98.40
33099;DHT22;19465;49.016;11.414;2024-03-02T15:12:38;12.40;98.10
33099;DHT22;19465;49.016;11.414;2024-03-02T15:15:04;12.50;97.70
33099;DHT22;19465;49.016;11.414;2024-03-02T15:17:30;12.30;97.90
33099;DHT22;19465;49.016;11.414;2024-03-02T15:19:55;12.20;98.30
33099;DHT22;19465;49.016;11.414;2024-03-02T15:22:21;11.80;99.00
33099;DHT22;19465;49.016;11.414;2024-03-02T15:24:46;11.50;99.90
33099;DHT22;19465;49.016;11.414;2024-03-02T15:27:12;11.50;99.90
33099;DHT22;19465;49.016;11.414;2024-03-02T15:29:38;11.20;99.90
33099;DHT22;19465;49.016;11.414;2024-03-02T15:32:04;11.20;99.90